Time;durP1;ratioP1;P1;durP2;ratioP2;P2;SDS_P1;SDS_P2;PMS_P1;PMS_P2;Temp;Humidity;BMP_temperature;BMP_pressure;BME280_temperature;BME280_humidity;BME280_pressure;Samples;Min_cycle;Max_cycle;Signal;HPM_P1;HPM_P2
2023/07/31 00:00:01;;;;;;;;;;;;;;;23.76;39.85;97103.31;4233854;28;5729;-75
2023/07/31 00:02:05;;;;;;;;;;;;;;;23.74;39.42;97094.66;4233849;28;5642;-75
2023/07/31 00:04:07;;;;;;;;;;;;;;;23.74;39.71;97095.47;4226086;28;5824;-70
2023/07/31 00:06:10;;;;;;;;;;;;;;;23.76;39.94;97090.63;4234028;28;5751;-72
2023/07/31 00:08:13;;;;;;;;;;;;;;;23.77;39.69;97094.94;4233083;28;5629;-71
2023/07/31 00:10:17;;;;;;;;;;;;;;;23.79;39.58;97100.09;4233726;28;5819;-75
2023/07/31 00:12:20;;;;;;;;;;;;;;;23.80;39.84;97099.81;4233988;28;8535;-70
2023/07/31 00:14:24;;;;;;;;;;;;;;;23.81;39.83;97101.44;4233881;28;5805;-69
2023/07/31 00:16:27;;;;;;;;;;;;;;;23.82;39.53;97099.53;4225110;27;5940;-71
2023/07/31 00:18:29;;;;;;;;;;;;;;;23.82;39.45;97102.25;4233793;27;5643;-75
2023/07/31 00:20:32;;;;;;;;;;;;;;;23.83;39.97;97108.44;4233757;27;5639;-74
2023/07/31 00:22:37;;;;;;;;;;;;;;;23.83;39.76;97103.03;4234092;27;5634;-73
2023/07/31 00:24:40;;;;;;;;;;;;;;;23.83;39.97;97109.25;4228291;28;5751;-71
2023/07/31 00:26:44;;;;;;;;;;;;;;;23.83;39.96;97108.44;4233589;28;5629;-77
2023/07/31 00:28:47;;;;;;;;;;;;;;;23.81;39.54;97096.03;4233833;28;5696;-77
2023/07/31 00:30:50;;;;;;;;;;;;;;;23.81;40.06;97087.13;4233812;28;5635;-72
2023/07/31 00:32:52;;;;;;;;;;;;;;;23.81;39.79;97093.31;4233503;28;5728;-69
2023/07/31 00:34:55;;;;;;;;;;;;;;;23.81;39.63;97093.31;4226116;28;5159;-73
2023/07/31 00:36:58;;;;;;;;;;;;;;;23.83;39.50;97089.53;4232822;28;5770;-69
2023/07/31 00:39:01;;;;;;;;;;;;;;;23.81;40.08;97085.22;4233071;27;5788;-72
2023/07/31 00:41:04;;;;;;;;;;;;;;;23.84;39.88;97077.66;4219513;28;6361;-75
2023/07/31 00:43:08;;;;;;;;;;;;;;;23.84;39.85;97083.06;4233724;28;5647;-70
2023/07/31 00:45:11;;;;;;;;;;;;;;;23.84;39.64;97072.28;4233343;28;7794;-76
2023/07/31 00:47:13;;;;;;;;;;;;;;;23.84;39.91;97086.56;4233409;28;5996;-72
2023/07/31 00:49:16;;;;;;;;;;;;;;;23.83;39.71;97076.06;4233217;28;5638;-69
2023/07/31 00:51:19;;;;;;;;;;;;;;;23.84;39.88;97077.66;4231345;28;5676;-72
2023/07/31 00:53:22;;;;;;;;;;;;;;;23.83;40.13;97068.75;4233409;28;5836;-70
2023/07/31 00:55:25;;;;;;;;;;;;;;;23.83;40.00;97065.25;4233328;28;6540;-73
2023/07/31 00:57:28;;;;;;;;;;;;;;;23.81;39.90;97065.53;4231324;28;5737;-72
2023/07/31 00:59:31;;;;;;;;;;;;;;;23.81;39.66;97063.63;4228871;28;5794;-76
2023/07/31 01:01:34;;;;;;;;;;;;;;;23.80;39.82;97056.63;4233051;28;5662;-74
2023/07/31 01:03:37;;;;;;;;;;;;;;;23.79;39.90;97065.00;4233304;28;5749;-68
2023/07/31 01:05:55;;;;;;;;;;;;;;;23.79;39.78;97054.19;4233276;28;5646;-73
2023/07/31 01:08:06;;;;;;;;;;;;;;;23.78;39.77;97063.34;4233114;28;5642;-76
2023/07/31 01:10:16;;;;;;;;;;;;;;;23.77;40.25;97054.44;4225695;28;5613;-76
2023/07/31 01:12:21;;;;;;;;;;;;;;;23.75;39.90;97053.09;4230832;28;5670;-77
2023/07/31 01:14:24;;;;;;;;;;;;;;;23.76;40.22;97054.72;4225889;28;5650;-67
2023/07/31 01:16:29;;;;;;;;;;;;;;;23.75;39.83;97051.22;4228293;28;5609;-74
2023/07/31 01:18:32;;;;;;;;;;;;;;;23.75;39.90;97063.91;4233130;28;5621;-69
2023/07/31 01:20:38;;;;;;;;;;;;;;;23.72;40.27;97057.16;4232732;28;5621;-73
2023/07/31 01:23:02;;;;;;;;;;;;;;;23.72;40.20;97050.94;4233142;28;5601;-75
2023/07/31 01:25:22;;;;;;;;;;;;;;;23.70;40.25;97048.53;4232947;28;5691;-76
2023/07/31 01:27:31;;;;;;;;;;;;;;;23.70;40.22;97056.63;4199424;28;5800;-72
2023/07/31 01:29:39;;;;;;;;;;;;;;;23.70;40.45;97053.13;4199208;28;5655;-76
2023/07/31 01:31:47;;;;;;;;;;;;;;;23.70;40.41;97050.41;4194417;28;6553;-74
2023/07/31 01:33:53;;;;;;;;;;;;;;;23.71;40.18;97052.84;4197315;28;5697;-72
2023/07/31 01:35:57;;;;;;;;;;;;;;;23.71;40.48;97044.75;4199472;28;5824;-70
2023/07/31 01:38:00;;;;;;;;;;;;;;;23.71;40.44;97041.22;4199386;28;6177;-70
2023/07/31 01:40:06;;;;;;;;;;;;;;;23.72;40.02;97045.56;4191316;28;5770;-72
2023/07/31 01:42:09;;;;;;;;;;;;;;;23.70;40.19;97034.22;4199373;28;5697;-73
2023/07/31 01:44:13;;;;;;;;;;;;;;;23.69;40.56;97035.31;4198018;28;5873;-69
2023/07/31 01:46:16;;;;;;;;;;;;;;;23.66;40.50;97039.31;4199021;28;5681;-76
2023/07/31 01:48:19;;;;;;;;;;;;;;;23.64;40.43;97030.69;4199172;28;5813;-69
2023/07/31 01:50:22;;;;;;;;;;;;;;;23.63;40.62;97030.97;4193556;28;5944;-67
2023/07/31 01:52:25;;;;;;;;;;;;;;;23.63;40.66;97029.09;4199691;28;5660;-70
2023/07/31 01:54:27;;;;;;;;;;;;;;;23.64;40.22;97025.31;4202531;28;6627;-72
2023/07/31 01:56:30;;;;;;;;;;;;;;;23.62;40.46;97027.47;4202805;28;5859;-74
2023/07/31 01:58:32;;;;;;;;;;;;;;;23.59;40.77;97028.00;4202849;28;5702;-71
2023/07/31 02:00:55;;;;;;;;;;;;;;;23.59;40.87;97027.22;4201221;28;5664;-73
2023/07/31 02:03:00;;;;;;;;;;;;;;;23.58;40.22;97026.41;4201240;28;5659;-75
2023/07/31 02:05:03;;;;;;;;;;;;;;;23.57;40.45;97026.66;4202261;28;5883;-74
2023/07/31 02:07:06;;;;;;;;;;;;;;;23.57;40.79;97018.56;4197052;28;5780;-73
2023/07/31 02:09:09;;;;;;;;;;;;;;;23.56;40.45;97023.13;4201457;28;5651;-71
2023/07/31 02:11:11;;;;;;;;;;;;;;;23.56;40.40;97028.53;4195470;28;5836;-72
2023/07/31 02:13:13;;;;;;;;;;;;;;;23.54;40.43;97019.88;4202326;28;5808;-74
2023/07/31 02:15:17;;;;;;;;;;;;;;;23.54;40.37;97027.97;4202152;28;5735;-76
2023/07/31 02:17:21;;;;;;;;;;;;;;;23.52;40.89;97027.44;4202163;28;5114;-73
2023/07/31 02:19:24;;;;;;;;;;;;;;;23.52;40.68;97022.03;4201908;28;5762;-72
2023/07/31 02:21:26;;;;;;;;;;;;;;;23.52;40.78;97024.75;4202178;28;5759;-72
2023/07/31 02:23:29;;;;;;;;;;;;;;;23.52;40.57;97025.53;4196085;28;5812;-76
2023/07/31 02:25:32;;;;;;;;;;;;;;;23.50;40.46;97032.28;4206907;28;5798;-71
2023/07/31 02:27:34;;;;;;;;;;;;;;;23.49;40.52;97019.88;4235574;28;5732;-74
2023/07/31 02:29:38;;;;;;;;;;;;;;;23.49;40.54;97027.97;4226970;28;5741;-68
2023/07/31 02:31:40;;;;;;;;;;;;;;;23.47;40.94;97013.97;4235795;28;5667;-70
2023/07/31 02:33:45;;;;;;;;;;;;;;;23.48;40.67;97020.97;4235488;28;5103;-75
2023/07/31 02:35:48;;;;;;;;;;;;;;;23.50;40.64;97016.09;4235498;28;5979;-76
2023/07/31 02:37:51;;;;;;;;;;;;;;;23.48;40.91;97013.69;4235336;28;6351;-69
2023/07/31 02:39:53;;;;;;;;;;;;;;;23.47;40.73;97016.66;4230979;28;5722;-68
2023/07/31 02:41:56;;;;;;;;;;;;;;;23.46;40.56;97012.34;4234471;28;5732;-70
2023/07/31 02:43:58;;;;;;;;;;;;;;;23.48;40.79;97015.56;4235668;28;5851;-70
2023/07/31 02:46:02;;;;;;;;;;;;;;;23.46;40.87;97018.53;4235215;28;5720;-75
2023/07/31 02:48:06;;;;;;;;;;;;;;;23.45;41.02;97027.72;4218957;28;5684;-71
2023/07/31 02:50:11;;;;;;;;;;;;;;;23.45;41.03;97029.63;4235017;27;5606;-74
2023/07/31 02:52:12;;;;;;;;;;;;;;;23.45;40.91;97037.72;4226379;27;5786;-73
2023/07/31 02:54:15;;;;;;;;;;;;;;;23.44;40.82;97034.19;4225950;28;5662;-66
2023/07/31 02:56:18;;;;;;;;;;;;;;;23.45;41.03;97040.41;4235388;28;5650;-73
2023/07/31 02:58:21;;;;;;;;;;;;;;;23.43;40.85;97046.03;4226065;28;5646;-70
2023/07/31 03:00:23;;;;;;;;;;;;;;;23.42;40.80;97046.31;4220256;27;5861;-74
2023/07/31 03:02:26;;;;;;;;;;;;;;;23.42;40.76;97043.63;4223378;28;6340;-74
2023/07/31 03:04:29;;;;;;;;;;;;;;;23.40;41.14;97043.91;4230215;28;5741;-76
2023/07/31 03:06:33;;;;;;;;;;;;;;;23.40;41.11;97040.38;4235044;28;5734;-76
2023/07/31 03:08:36;;;;;;;;;;;;;;;23.40;41.33;97045.78;4226620;27;5818;-70
2023/07/31 03:10:39;;;;;;;;;;;;;;;23.40;40.94;97043.09;4234873;27;5758;-75
2023/07/31 03:12:42;;;;;;;;;;;;;;;23.41;41.39;97047.41;4234921;28;5642;-75
2023/07/31 03:14:45;;;;;;;;;;;;;;;23.41;41.47;97042.81;4229242;27;5661;-75
2023/07/31 03:16:49;;;;;;;;;;;;;;;23.42;40.95;97043.63;4234697;27;6339;-70
2023/07/31 03:18:52;;;;;;;;;;;;;;;23.41;40.99;97047.41;4234899;28;5741;-75
2023/07/31 03:20:55;;;;;;;;;;;;;;;23.43;41.33;97047.94;4233266;28;5715;-76
2023/07/31 03:22:59;;;;;;;;;;;;;;;23.40;41.05;97035.78;4232551;28;5678;-74
2023/07/31 03:25:01;;;;;;;;;;;;;;;23.39;41.70;97036.06;4233725;28;5753;-71
2023/07/31 03:27:05;;;;;;;;;;;;;;;23.38;41.48;97037.16;4221416;28;5796;-69
2023/07/31 03:29:08;;;;;;;;;;;;;;;23.37;41.72;97030.13;4218874;28;5627;-73
2023/07/31 03:31:11;;;;;;;;;;;;;;;23.36;41.21;97037.44;4218821;28;5651;-67
2023/07/31 03:33:14;;;;;;;;;;;;;;;23.36;41.15;97033.91;4220365;28;5870;-74
2023/07/31 03:35:16;;;;;;;;;;;;;;;23.36;41.66;97037.44;4219132;27;5928;-70
2023/07/31 03:37:19;;;;;;;;;;;;;;;23.36;41.36;97033.91;4221114;27;5782;-70
2023/07/31 03:39:24;;;;;;;;;;;;;;;23.36;41.83;97040.13;4218863;28;5876;-76
2023/07/31 03:41:27;;;;;;;;;;;;;;;23.36;41.43;97047.41;4220626;28;5814;-77
2023/07/31 03:43:30;;;;;;;;;;;;;;;23.36;41.45;97039.31;4221753;28;5635;-66
2023/07/31 03:45:33;;;;;;;;;;;;;;;23.37;41.64;97047.13;4218765;28;5675;-69
2023/07/31 03:47:35;;;;;;;;;;;;;;;23.36;41.49;97033.91;4218178;28;6284;-73
2023/07/31 03:49:39;;;;;;;;;;;;;;;23.37;41.72;97035.53;4225793;28;5757;-74
2023/07/31 03:51:42;;;;;;;;;;;;;;;23.37;41.34;97040.94;4220425;28;7738;-73
2023/07/31 03:53:45;;;;;;;;;;;;;;;23.35;41.60;97037.69;4220368;28;5776;-71
2023/07/31 03:55:50;;;;;;;;;;;;;;;23.35;41.54;97032.31;4220300;28;5703;-70
2023/07/31 03:57:52;;;;;;;;;;;;;;;23.35;41.83;97035.00;4218840;28;6367;-76
2023/07/31 03:59:54;;;;;;;;;;;;;;;23.33;41.66;97035.28;4215917;28;5796;-71
2023/07/31 04:01:57;;;;;;;;;;;;;;;23.31;41.83;97039.28;4219937;28;5658;-74
2023/07/31 04:04:00;;;;;;;;;;;;;;;23.30;41.75;97038.50;4220713;28;5691;-72
2023/07/31 04:06:03;;;;;;;;;;;;;;;23.29;42.13;97041.44;4219462;28;5820;-71
2023/07/31 04:08:06;;;;;;;;;;;;;;;23.28;41.92;97053.31;4220805;28;5780;-77
2023/07/31 04:10:10;;;;;;;;;;;;;;;23.26;41.75;97056.28;4221067;28;5630;-75
2023/07/31 04:12:16;;;;;;;;;;;;;;;23.25;42.17;97051.97;4218934;28;5991;-71
2023/07/31 04:14:19;;;;;;;;;;;;;;;23.26;42.38;97058.19;4229904;28;5685;-76
2023/07/31 04:16:22;;;;;;;;;;;;;;;23.23;42.24;97057.66;4219523;28;5823;-75
2023/07/31 04:18:26;;;;;;;;;;;;;;;23.23;42.11;97060.34;4219269;28;5881;-73
2023/07/31 04:20:29;;;;;;;;;;;;;;;23.22;42.57;97053.34;4221521;28;5881;-69
2023/07/31 04:22:32;;;;;;;;;;;;;;;23.23;42.14;97051.44;4220403;28;5651;-73
2023/07/31 04:24:34;;;;;;;;;;;;;;;23.21;42.61;97070.56;4218227;28;6343;-72
2023/07/31 04:26:37;;;;;;;;;;;;;;;23.20;42.59;97074.34;4220750;28;5650;-75
2023/07/31 04:28:42;;;;;;;;;;;;;;;23.19;42.28;97072.72;4223196;28;6391;-68
2023/07/31 04:30:45;;;;;;;;;;;;;;;23.20;42.38;97074.34;4233862;27;5663;-75
2023/07/31 04:32:52;;;;;;;;;;;;;;;23.16;42.71;97069.75;4233641;27;5731;-70
2023/07/31 04:34:55;;;;;;;;;;;;;;;23.15;42.66;97073.53;4233402;28;7679;-74
2023/07/31 04:36:58;;;;;;;;;;;;;;;23.16;42.80;97073.25;4233344;28;5670;-69
2023/07/31 04:39:01;;;;;;;;;;;;;;;23.14;42.92;97071.91;4228369;28;5663;-75
2023/07/31 04:41:05;;;;;;;;;;;;;;;23.13;42.85;97068.41;4225303;27;5647;-73
2023/07/31 04:43:08;;;;;;;;;;;;;;;23.10;42.47;97066.22;4233529;27;5709;-73
2023/07/31 04:45:12;;;;;;;;;;;;;;;23.06;42.96;97067.84;4232103;28;6708;-72
2023/07/31 04:47:15;;;;;;;;;;;;;;;22.94;42.89;97073.47;4225154;28;5855;-74
2023/07/31 04:49:19;;;;;;;;;;;;;;;22.86;42.71;97065.09;4233313;28;5650;-70
2023/07/31 04:51:23;;;;;;;;;;;;;;;22.83;43.24;97054.81;4233915;28;5840;-69
2023/07/31 04:53:25;;;;;;;;;;;;;;;22.88;43.15;97049.47;4233479;28;6517;-68
2023/07/31 04:55:28;;;;;;;;;;;;;;;22.93;43.12;97057.56;4232805;28;5729;-74
2023/07/31 04:57:31;;;;;;;;;;;;;;;22.98;42.96;97062.97;4228011;28;5731;-75
2023/07/31 04:59:34;;;;;;;;;;;;;;;22.99;42.93;97045.72;4233406;27;5725;-69
2023/07/31 05:01:38;;;;;;;;;;;;;;;23.02;43.17;97044.38;4233489;27;5853;-73
2023/07/31 05:03:41;;;;;;;;;;;;;;;23.02;43.00;97050.59;4233163;27;5650;-74
2023/07/31 05:05:44;;;;;;;;;;;;;;;23.04;43.13;97058.41;4227124;28;5643;-69
2023/07/31 05:07:46;;;;;;;;;;;;;;;23.07;43.04;97063.25;4231357;28;5648;-69
2023/07/31 05:09:49;;;;;;;;;;;;;;;23.07;43.54;97061.38;4233874;27;5613;-72
2023/07/31 05:11:52;;;;;;;;;;;;;;;23.09;43.16;97069.19;4233621;27;5900;-73
2023/07/31 05:13:55;;;;;;;;;;;;;;;23.10;43.73;97085.09;4227842;27;5621;-76
2023/07/31 05:15:58;;;;;;;;;;;;;;;23.09;43.71;97080.78;4233071;28;5750;-73
2023/07/31 05:18:06;;;;;;;;;;;;;;;23.10;43.68;97074.31;4225377;28;5788;-75
2023/07/31 05:20:10;;;;;;;;;;;;;;;23.11;43.59;97069.75;4233142;28;5627;-72
2023/07/31 05:22:13;;;;;;;;;;;;;;;23.12;44.04;97071.38;4229827;28;5671;-70
2023/07/31 05:24:16;;;;;;;;;;;;;;;23.11;43.84;97064.38;4230907;28;5638;-75
2023/07/31 05:26:19;;;;;;;;;;;;;;;23.09;44.01;97067.31;4226866;28;5741;-69
2023/07/31 05:28:21;;;;;;;;;;;;;;;23.10;43.92;97068.09;4226558;28;5745;-70
2023/07/31 05:30:24;;;;;;;;;;;;;;;23.10;43.94;97074.31;4219042;28;5921;-72
2023/07/31 05:32:27;;;;;;;;;;;;;;;23.11;44.14;97075.97;4222090;28;5817;-70
2023/07/31 05:34:31;;;;;;;;;;;;;;;23.10;44.13;97073.50;4225932;28;5633;-70
2023/07/31 05:36:35;;;;;;;;;;;;;;;23.08;44.10;97071.06;4233224;28;5753;-68
2023/07/31 05:38:38;;;;;;;;;;;;;;;23.09;44.13;97080.78;4233063;28;6446;-67
2023/07/31 05:40:44;;;;;;;;;;;;;;;23.09;44.17;97085.38;4233592;28;5663;-74
2023/07/31 05:42:47;;;;;;;;;;;;;;;23.08;44.21;97087.25;4233202;28;5736;-75
2023/07/31 05:44:50;;;;;;;;;;;;;;;23.08;44.21;97098.03;4232514;28;5662;-72
2023/07/31 05:46:53;;;;;;;;;;;;;;;23.07;44.42;97085.63;4228391;28;5751;-70
2023/07/31 05:48:56;;;;;;;;;;;;;;;23.07;44.47;97085.63;4231888;28;5724;-73
2023/07/31 05:51:00;;;;;;;;;;;;;;;23.09;44.11;97088.88;4227877;28;5145;-71
2023/07/31 05:53:03;;;;;;;;;;;;;;;23.11;44.22;97081.34;4224229;28;5838;-73
2023/07/31 05:55:08;;;;;;;;;;;;;;;23.12;44.44;97088.38;4232737;28;5618;-71
2023/07/31 05:57:10;;;;;;;;;;;;;;;23.14;43.91;97078.13;4232610;28;5722;-75
2023/07/31 05:59:14;;;;;;;;;;;;;;;23.19;44.30;97067.31;4232886;28;5616;-73
2023/07/31 06:01:17;;;;;;;;;;;;;;;23.26;43.98;97063.56;4232991;28;5733;-71
2023/07/31 06:03:20;;;;;;;;;;;;;;;23.31;44.15;97060.88;4232447;28;5737;-69
2023/07/31 06:05:23;;;;;;;;;;;;;;;23.35;43.99;97064.69;4226769;28;6340;-73
2023/07/31 06:07:27;;;;;;;;;;;;;;;23.40;43.93;97068.16;4232705;28;5650;-72
2023/07/31 06:09:30;;;;;;;;;;;;;;;23.44;44.06;97060.34;4232524;28;5601;-76
2023/07/31 06:11:34;;;;;;;;;;;;;;;23.49;43.94;97050.38;4224457;27;5646;-69
2023/07/31 06:13:37;;;;;;;;;;;;;;;23.53;43.81;97045.25;4233099;28;5761;-75
2023/07/31 06:15:39;;;;;;;;;;;;;;;23.55;43.81;97051.19;4232554;27;5940;-75
2023/07/31 06:17:43;;;;;;;;;;;;;;;23.59;43.99;97038.81;4233023;27;5639;-75
2023/07/31 06:19:46;;;;;;;;;;;;;;;23.62;43.81;97048.25;4232327;28;5809;-73
2023/07/31 06:21:49;;;;;;;;;;;;;;;23.64;44.19;97044.19;4226813;27;5685;-72
2023/07/31 06:23:53;;;;;;;;;;;;;;;23.67;44.07;97050.94;4232377;28;5863;-74
2023/07/31 06:25:56;;;;;;;;;;;;;;;23.69;43.51;97048.81;4232332;28;5623;-72
2023/07/31 06:27:59;;;;;;;;;;;;;;;23.72;43.61;97037.44;4232261;28;5742;-72
2023/07/31 06:30:01;;;;;;;;;;;;;;;23.71;43.88;97042.03;4224229;28;5675;-67
2023/07/31 06:32:04;;;;;;;;;;;;;;;23.74;43.66;97046.09;4224406;28;5696;-71
2023/07/31 06:34:07;;;;;;;;;;;;;;;23.78;43.53;97047.16;4220124;28;6496;-69
2023/07/31 06:36:10;;;;;;;;;;;;;;;23.80;44.01;97053.91;4224840;28;5909;-76
2023/07/31 06:38:11;;;;;;;;;;;;;;;23.83;43.82;97055.25;4224296;27;5721;-70
2023/07/31 06:40:16;;;;;;;;;;;;;;;23.86;43.53;97054.72;4227874;28;5737;-73
2023/07/31 06:42:18;;;;;;;;;;;;;;;23.90;43.72;97050.41;4235359;28;5822;-72
2023/07/31 06:44:21;;;;;;;;;;;;;;;23.91;43.40;97052.03;4235397;27;5693;-73
2023/07/31 06:46:24;;;;;;;;;;;;;;;23.89;43.72;97059.56;4235182;28;5904;-76
2023/07/31 06:48:27;;;;;;;;;;;;;;;23.88;43.44;97057.13;4235625;27;5658;-76
2023/07/31 06:50:30;;;;;;;;;;;;;;;23.86;43.75;97048.50;4235200;27;5749;-72
2023/07/31 06:52:33;;;;;;;;;;;;;;;23.87;44.03;97060.91;4235657;28;5661;-70
2023/07/31 06:54:35;;;;;;;;;;;;;;;23.89;43.40;97050.66;4233483;28;5734;-73
2023/07/31 06:56:40;;;;;;;;;;;;;;;23.88;43.57;97046.34;4230486;28;5792;-74
2023/07/31 06:58:43;;;;;;;;;;;;;;;23.88;43.57;97047.16;4227123;28;6367;-70
2023/07/31 07:00:46;;;;;;;;;;;;;;;23.87;43.79;97050.94;4232978;28;5741;-68
2023/07/31 07:02:50;;;;;;;;;;;;;;;23.86;43.65;97051.19;4235469;28;5610;-72
2023/07/31 07:04:52;;;;;;;;;;;;;;;23.86;43.71;97053.91;4235041;28;5633;-75
2023/07/31 07:06:55;;;;;;;;;;;;;;;23.85;43.41;97052.28;4235409;27;5875;-71
2023/07/31 07:08:58;;;;;;;;;;;;;;;23.84;43.82;97056.06;4235084;27;5749;-69
2023/07/31 07:11:01;;;;;;;;;;;;;;;23.83;43.38;97049.88;4235048;28;5872;-67
2023/07/31 07:13:05;;;;;;;;;;;;;;;23.83;43.58;97038.25;4227213;28;5636;-72
2023/07/31 07:15:09;;;;;;;;;;;;;;;23.84;43.75;97034.47;4226400;28;5671;-74
2023/07/31 07:17:12;;;;;;;;;;;;;;;23.84;43.40;97034.47;4233723;28;5649;-69
2023/07/31 07:19:33;;;;;;;;;;;;;;;23.84;43.84;97029.06;4230711;28;5655;-73
2023/07/31 07:21:36;;;;;;;;;;;;;;;23.83;43.96;97027.47;4235213;28;5686;-74
2023/07/31 07:23:39;;;;;;;;;;;;;;;23.80;43.89;97029.63;4234916;27;5113;-67
2023/07/31 07:25:42;;;;;;;;;;;;;;;23.80;43.52;97029.63;4233697;28;5763;-72
2023/07/31 07:28:03;;;;;;;;;;;;;;;23.80;43.82;97029.63;4235184;28;5745;-70
2023/07/31 07:30:25;;;;;;;;;;;;;;;23.78;43.76;97029.09;4230486;28;5662;-75
2023/07/31 07:32:27;;;;;;;;;;;;;;;23.77;44.06;97035.53;4226912;28;5639;-67
2023/07/31 07:34:30;;;;;;;;;;;;;;;23.77;43.67;97029.34;4233633;28;5751;-67
2023/07/31 07:36:33;;;;;;;;;;;;;;;23.76;43.57;97025.84;4227870;28;5772;-73
2023/07/31 07:38:37;;;;;;;;;;;;;;;23.74;43.73;97025.31;4230870;28;5622;-76
2023/07/31 07:40:40;;;;;;;;;;;;;;;23.71;44.14;97019.66;4234611;28;5111;-75
2023/07/31 07:42:42;;;;;;;;;;;;;;;23.68;44.02;97026.41;4234435;28;5742;-73
2023/07/31 07:44:45;;;;;;;;;;;;;;;23.67;43.78;97022.09;4234249;28;5643;-75
2023/07/31 07:46:48;;;;;;;;;;;;;;;23.69;43.81;97033.41;4226131;28;5646;-75
2023/07/31 07:48:51;;;;;;;;;;;;;;;23.70;44.20;97039.63;4232779;28;5621;-74
2023/07/31 07:50:54;;;;;;;;;;;;;;;23.70;44.27;97036.91;4225743;28;5737;-73
2023/07/31 07:52:57;;;;;;;;;;;;;;;23.70;44.03;97035.03;4226592;28;5749;-71
2023/07/31 07:55:01;;;;;;;;;;;;;;;23.70;44.28;97035.03;4234305;28;5647;-72
2023/07/31 07:57:04;;;;;;;;;;;;;;;23.70;44.32;97040.44;4234417;28;5649;-74
2023/07/31 07:59:06;;;;;;;;;;;;;;;23.71;44.19;97038.53;4234277;28;5649;-74
2023/07/31 08:01:10;;;;;;;;;;;;;;;23.72;43.91;97042.84;4232020;28;5825;-72
2023/07/31 08:03:14;;;;;;;;;;;;;;;23.70;44.21;97035.03;4228671;28;5847;-71
2023/07/31 08:05:17;;;;;;;;;;;;;;;23.72;43.99;97042.84;4232847;28;5658;-75
2023/07/31 08:07:20;;;;;;;;;;;;;;;23.71;44.04;97043.94;4228458;28;5763;-74
2023/07/31 08:09:23;;;;;;;;;;;;;;;23.71;44.32;97046.63;4234213;28;5654;-68
2023/07/31 08:11:26;;;;;;;;;;;;;;;23.71;44.08;97046.63;4231664;28;5742;-68
2023/07/31 08:13:29;;;;;;;;;;;;;;;23.70;44.66;97048.53;4232362;28;5650;-70
2023/07/31 08:15:32;;;;;;;;;;;;;;;23.71;44.36;97039.34;4227356;27;6446;-73
2023/07/31 08:17:35;;;;;;;;;;;;;;;23.72;44.21;97037.44;4215831;28;5671;-75
2023/07/31 08:19:39;;;;;;;;;;;;;;;23.72;44.33;97027.47;4217851;28;6361;-72
2023/07/31 08:21:42;;;;;;;;;;;;;;;23.77;44.74;97024.75;4214528;28;5770;-72
2023/07/31 08:23:45;;;;;;;;;;;;;;;23.79;44.42;97028.00;4228937;28;5761;-74
2023/07/31 08:25:49;;;;;;;;;;;;;;;23.80;44.46;97031.50;4220267;28;5786;-74
2023/07/31 08:27:53;;;;;;;;;;;;;;;23.80;44.13;97024.22;4228746;28;5921;-73
2023/07/31 08:29:56;;;;;;;;;;;;;;;23.80;44.29;97021.53;4218275;28;5806;-71
2023/07/31 08:31:57;;;;;;;;;;;;;;;23.81;44.44;97019.63;4221174;28;5844;-74
2023/07/31 08:34:01;;;;;;;;;;;;;;;23.79;44.08;97014.50;4223484;27;5731;-72
2023/07/31 08:36:05;;;;;;;;;;;;;;;23.79;44.56;97019.91;4225328;27;5868;-72
2023/07/31 08:38:08;;;;;;;;;;;;;;;23.79;44.44;97014.50;4230221;28;5785;-72
2023/07/31 08:40:13;;;;;;;;;;;;;;;23.79;44.16;97019.91;4227288;27;5119;-73
2023/07/31 08:42:16;;;;;;;;;;;;;;;23.81;43.82;97022.34;4233020;28;5881;-72
2023/07/31 08:44:20;;;;;;;;;;;;;;;23.81;44.14;97017.75;4224146;28;5680;-73
2023/07/31 08:46:24;;;;;;;;;;;;;;;23.85;44.08;97023.41;4219600;28;5791;-72
2023/07/31 08:48:29;;;;;;;;;;;;;;;23.87;43.60;97020.41;4229322;28;5667;-74
2023/07/31 08:50:32;;;;;;;;;;;;;;;23.89;43.50;97012.84;4231817;27;5654;-71
2023/07/31 08:52:36;;;;;;;;;;;;;;;23.91;43.98;97008.81;4233271;28;5743;-72
2023/07/31 08:54:39;;;;;;;;;;;;;;;23.94;43.90;97012.88;4231558;28;5654;-75
2023/07/31 08:56:44;;;;;;;;;;;;;;;23.96;43.50;97008.00;4227049;27;6489;-75
2023/07/31 08:58:48;;;;;;;;;;;;;;;23.97;43.36;97004.22;4219832;27;5665;-72
2023/07/31 09:00:52;;;;;;;;;;;;;;;23.99;43.14;97002.03;4221545;28;6401;-72
2023/07/31 09:03:01;;;;;;;;;;;;;;;23.99;43.14;96994.75;4228475;28;5748;-71
2023/07/31 09:05:06;;;;;;;;;;;;;;;24.02;43.43;96993.41;4223060;28;5754;-70
2023/07/31 09:07:13;;;;;;;;;;;;;;;24.03;43.13;96984.22;4226970;28;5207;-73
2023/07/31 09:09:17;;;;;;;;;;;;;;;24.04;43.03;96989.34;4226203;27;5669;-71
2023/07/31 09:11:22;;;;;;;;;;;;;;;24.05;43.38;96987.44;4219397;28;5737;-72
2023/07/31 09:13:25;;;;;;;;;;;;;;;24.06;42.74;96978.25;4228719;28;5659;-74
2023/07/31 09:15:29;;;;;;;;;;;;;;;24.08;43.30;96978.78;4225442;28;5678;-68
2023/07/31 09:17:40;;;;;;;;;;;;;;;24.11;42.90;96975.53;4227511;28;5619;-76
2023/07/31 09:19:44;;;;;;;;;;;;;;;24.12;42.61;96982.56;4220490;27;5847;-78
2023/07/31 09:21:49;;;;;;;;;;;;;;;24.09;42.56;96978.50;4220847;28;5969;-75
2023/07/31 09:23:54;;;;;;;;;;;;;;;24.06;42.90;96970.16;4226778;28;5908;-70
2023/07/31 09:26:00;;;;;;;;;;;;;;;24.04;42.56;96972.34;4217955;28;5647;-69
2023/07/31 09:28:04;;;;;;;;;;;;;;;23.98;42.75;96971.53;4217063;28;5848;-68
2023/07/31 09:30:08;;;;;;;;;;;;;;;23.92;42.94;96966.44;4217435;28;5749;-68
2023/07/31 09:32:18;;;;;;;;;;;;;;;23.92;42.70;96961.03;4219781;28;5664;-67
2023/07/31 09:34:21;;;;;;;;;;;;;;;23.94;42.71;96959.66;4225517;27;5774;-69
2023/07/31 09:36:24;;;;;;;;;;;;;;;23.97;42.47;96945.59;4226518;28;5614;-74
2023/07/31 09:38:27;;;;;;;;;;;;;;;23.99;42.45;96956.13;4226981;28;5837;-70
2023/07/31 09:40:31;;;;;;;;;;;;;;;23.98;42.69;96946.41;4229688;28;5658;-74
2023/07/31 09:42:35;;;;;;;;;;;;;;;23.98;42.94;96954.53;4228992;28;5751;-72
2023/07/31 09:44:40;;;;;;;;;;;;;;;23.95;42.44;96950.47;4216609;28;5737;-75
2023/07/31 09:46:43;;;;;;;;;;;;;;;23.96;42.42;96948.59;4229726;28;5654;-66
2023/07/31 09:48:46;;;;;;;;;;;;;;;23.99;42.55;96950.72;4218588;28;5878;-74
2023/07/31 09:50:50;;;;;;;;;;;;;;;24.01;42.55;96941.28;4226269;28;5651;-70
2023/07/31 09:52:52;;;;;;;;;;;;;;;24.00;42.49;96942.34;4226259;28;5678;-72
2023/07/31 09:54:55;;;;;;;;;;;;;;;24.00;42.08;96934.25;4223684;28;5767;-67
2023/07/31 09:57:01;;;;;;;;;;;;;;;24.01;42.60;96927.78;4221104;28;5679;-68
2023/07/31 09:59:06;;;;;;;;;;;;;;;24.03;42.06;96927.50;4215980;28;6524;-71
2023/07/31 10:01:09;;;;;;;;;;;;;;;24.03;41.90;96922.13;4227395;27;5126;-67
2023/07/31 10:03:12;;;;;;;;;;;;;;;24.03;41.82;96914.81;4223096;28;5817;-71
2023/07/31 10:05:16;;;;;;;;;;;;;;;24.04;42.00;96915.63;4221941;28;5743;-69
2023/07/31 10:07:20;;;;;;;;;;;;;;;24.05;42.28;96918.03;4214479;28;5790;-71
2023/07/31 10:09:26;;;;;;;;;;;;;;;24.06;42.00;96926.97;4220060;28;5143;-72
2023/07/31 10:11:34;;;;;;;;;;;;;;;24.08;41.81;96913.97;4223958;28;5632;-70
2023/07/31 10:13:38;;;;;;;;;;;;;;;24.08;41.81;96911.28;4225720;28;5876;-74
2023/07/31 10:15:43;;;;;;;;;;;;;;;24.10;41.54;96911.81;4226379;28;5207;-71
2023/07/31 10:17:47;;;;;;;;;;;;;;;24.11;41.59;96905.31;4221864;28;6476;-72
2023/07/31 10:19:51;;;;;;;;;;;;;;;24.12;41.95;96912.34;4220615;27;5772;-70
2023/07/31 10:21:56;;;;;;;;;;;;;;;24.13;41.48;96908.56;4221639;27;5974;-71
2023/07/31 10:24:00;;;;;;;;;;;;;;;24.13;41.48;96913.16;4217879;27;5856;-71
2023/07/31 10:26:05;;;;;;;;;;;;;;;24.13;41.46;96908.56;4215734;27;5809;-73
2023/07/31 10:28:11;;;;;;;;;;;;;;;24.14;41.73;96904.78;4219457;27;5870;-74
2023/07/31 10:30:16;;;;;;;;;;;;;;;24.16;41.45;96908.00;4227507;28;5746;-69
2023/07/31 10:32:24;;;;;;;;;;;;;;;24.16;41.35;96913.41;4221259;28;5729;-71
2023/07/31 10:34:28;;;;;;;;;;;;;;;24.16;41.40;96897.22;4231203;28;5617;-71
2023/07/31 10:36:31;;;;;;;;;;;;;;;24.17;41.12;96892.63;4223670;28;6844;-70
2023/07/31 10:38:33;;;;;;;;;;;;;;;24.18;40.95;96888.81;4223962;28;5765;-74
2023/07/31 10:40:36;;;;;;;;;;;;;;;24.18;41.45;96889.63;4229574;28;5766;-72
2023/07/31 10:42:47;;;;;;;;;;;;;;;24.19;41.17;96893.94;4223753;28;5734;-68
2023/07/31 10:44:50;;;;;;;;;;;;;;;24.19;41.10;96883.13;4222356;28;5790;-69
2023/07/31 10:46:56;;;;;;;;;;;;;;;24.19;41.25;96883.13;4230349;28;5821;-72
2023/07/31 10:49:02;;;;;;;;;;;;;;;24.19;40.82;96869.63;4222416;28;5914;-74
2023/07/31 10:51:09;;;;;;;;;;;;;;;24.20;40.90;96876.66;4229459;28;7138;-73
2023/07/31 10:53:23;;;;;;;;;;;;;;;24.20;40.94;96882.06;4227693;28;5856;-73